Columbia — WDE2933 — position and weather

sailwx.info

Track history (hours):
 
Tides and Currents Weather Stations Pressure Air Temp Water Temp Dewpoint Dewpoint Depression Visibility Wind Speed Wind Dir Waves Ship Positions

Columbia

Owner: Saddle Mountain Inc., Astoria, OR. More information available from US FCC via Universal Licensing System.

Last reported at 2017-Oct-17 15:30 UTC. Time now 2017-Oct-17 15:46 UTC.
Position N 46°10' W 123°55'.

Length 23 m; draft 1 m.

Type: Pilot. MMSI: 3699090.

Date/timePositionNaut miles runAvg speedWind from/ knotsBaromVisibWave heightAir tempDewpointWater temp
2017-Oct-17 15:30N 46°10' W 123°55'0 0.0
2017-Oct-17 15:00N 46°10' W 123°55'0 0.0
2017-Oct-17 14:30N 46°10' W 123°55'0 0.0
2017-Oct-17 14:01N 46°10' W 123°55'0 0.0
2017-Oct-17 13:30N 46°10' W 123°55'0 0.0
2017-Oct-17 13:00N 46°10' W 123°55'0 0.0
2017-Oct-17 12:30N 46°10' W 123°55'0 0.0
2017-Oct-17 12:00N 46°10' W 123°55'0 0.0
2017-Oct-17 11:31N 46°10' W 123°55'0 0.0
2017-Oct-17 11:00N 46°10' W 123°55'0 0.0
2017-Oct-17 10:30N 46°10' W 123°55'0 0.0
2017-Oct-17 10:00N 46°10' W 123°55'0 0.0
2017-Oct-17 09:30N 46°10' W 123°55'0 0.0
2017-Oct-17 09:00N 46°10' W 123°55'0 0.0
2017-Oct-17 08:30N 46°10' W 123°55'0 0.0
2017-Oct-17 08:00N 46°10' W 123°55'0 0.0
2017-Oct-17 07:30N 46°10' W 123°55'0 0.0
2017-Oct-17 07:00N 46°10' W 123°55'0 0.0
2017-Oct-17 06:30N 46°10' W 123°55'0 0.0
2017-Oct-17 06:00N 46°10' W 123°55'0 0.0
2017-Oct-17 05:30N 46°10' W 123°55'0 0.0
2017-Oct-17 05:01N 46°10' W 123°55'0 0.0
2017-Oct-17 04:30N 46°10' W 123°55'0 0.0
2017-Oct-17 04:00N 46°10' W 123°55'0 0.0
2017-Oct-17 03:31N 46°10' W 123°55'0 0.0
2017-Oct-17 03:01N 46°10' W 123°55'0 0.0
2017-Oct-17 02:30N 46°10' W 123°55'0 0.0
2017-Oct-17 02:00N 46°10' W 123°55'0 0.0
2017-Oct-17 01:31N 46°10' W 123°55'0 0.0
2017-Oct-17 01:00N 46°10' W 123°55'0 0.3
2017-Oct-17 00:31N 46°10' W 123°55'0 0.3
2017-Oct-17 00:00N 46°10' W 123°55'0 0.0
2017-Oct-16 23:30N 46°10' W 123°55'0 0.0
2017-Oct-16 23:00N 46°10' W 123°55'0 0.0
2017-Oct-16 22:31N 46°10' W 123°55'0 0.0
2017-Oct-16 22:00N 46°10' W 123°55'0 0.0
2017-Oct-16 21:30N 46°10' W 123°55'0 0.0
2017-Oct-16 21:00N 46°10' W 123°55'0 0.0
2017-Oct-16 20:30N 46°10' W 123°55'0 0.0
2017-Oct-16 20:00N 46°10' W 123°55'5 9.8
2017-Oct-16 19:31N 46°14' W 123°59'815.8
2017-Oct-16 19:00N 46°13' W 124°10'3 5.7
2017-Oct-16 18:31N 46°14' W 124°07'918.1
2017-Oct-16 18:01N 46°11' W 123°54'1 1.7
2017-Oct-16 17:31N 46°10' W 123°55'0 0.0
2017-Oct-16 17:01N 46°10' W 123°55'0 0.5
2017-Oct-16 16:30N 46°10' W 123°55'713.4
2017-Oct-16 16:01N 46°15' W 124°01'611.2
2017-Oct-16 15:31N 46°13' W 124°08'3 5.7
2017-Oct-16 15:00N 46°11' W 124°12'9 9.5
2017-Oct-16 14:01N 46°15' W 123°59'510.9
2017-Oct-16 13:31N 46°10' W 123°55'0 0.3
2017-Oct-16 13:01N 46°10' W 123°55'0 0.0
2017-Oct-16 12:31N 46°10' W 123°55'0 0.0
2017-Oct-16 12:00N 46°10' W 123°55'0 0.0
2017-Oct-16 11:31N 46°10' W 123°55'0 0.3
2017-Oct-16 11:01N 46°10' W 123°55'4 7.1
2017-Oct-16 10:30N 46°13' W 123°58'815.7
2017-Oct-16 10:00N 46°12' W 124°09'0 0.5
2017-Oct-16 09:31N 46°12' W 124°09'510.9
2017-Oct-16 09:01N 46°16' W 124°03'713.5
2017-Oct-16 08:31N 46°12' W 123°55'2 3.0
2017-Oct-16 08:01N 46°10' W 123°55'0 0.0
2017-Oct-16 07:22N 46°10' W 123°55'0 0.0
2017-Oct-16 07:01N 46°10' W 123°55'0 0.0
2017-Oct-16 06:30N 46°10' W 123°55'0 0.8
2017-Oct-16 06:01N 46°10' W 123°55'918.3
2017-Oct-16 05:31N 46°14' W 124°07'2 4.7
2017-Oct-16 05:01N 46°12' W 124°09'2 4.5
2017-Oct-16 04:31N 46°13' W 124°13'1020.5
2017-Oct-16 04:01N 46°13' W 123°58'4 7.5
2017-Oct-16 03:31N 46°10' W 123°55'0 0.0
2017-Oct-16 03:00N 46°10' W 123°55'0 0.0
2017-Oct-16 02:30N 46°10' W 123°55'3 6.3
2017-Oct-16 02:01N 46°13' W 123°57'816.0
2017-Oct-16 01:31N 46°13' W 124°09'1 1.8
2017-Oct-16 01:01N 46°14' W 124°09'1 2.7
2017-Oct-16 00:30N 46°13' W 124°08'0 0.7
2017-Oct-16 00:01N 46°13' W 124°08'1019.3
2017-Oct-15 23:31N 46°11' W 123°55'1 1.3
2017-Oct-15 23:00N 46°10' W 123°55'0 0.0
2017-Oct-15 22:31N 46°10' W 123°55'0 0.0
2017-Oct-15 22:01N 46°10' W 123°55'0 0.0
2017-Oct-15 21:30N 46°10' W 123°55'0 0.0
2017-Oct-15 21:01N 46°10' W 123°55'0 0.0
2017-Oct-15 20:30N 46°10' W 123°55'0 0.0
2017-Oct-15 20:01N 46°10' W 123°55'0 0.0
2017-Oct-15 19:25N 46°10' W 123°55'0 0.3
2017-Oct-15 19:00N 46°10' W 123°55'3 6.9
2017-Oct-15 18:30N 46°13' W 123°57'1122.0
2017-Oct-15 18:01N 46°13' W 124°13'2 4.4
2017-Oct-15 17:30N 46°11' W 124°16'2 4.9
2017-Oct-15 17:00N 46°11' W 124°12'0 0.6
2017-Oct-15 16:31N 46°12' W 124°12'714.4
2017-Oct-15 16:01N 46°15' W 124°03'714.1
2017-Oct-15 15:30N 46°10' W 123°55'0 0.0
2017-Oct-15 15:00N 46°10' W 123°55'0 0.0
2017-Oct-15 13:54N 46°10' W 123°55'0 0.0
2017-Oct-15 13:31N 46°10' W 123°55'0 0.0
2017-Oct-15 13:01N 46°10' W 123°55'0 0.0
2017-Oct-15 12:31N 46°10' W 123°55'0 0.0
2017-Oct-15 12:00N 46°10' W 123°55'0 0.0
2017-Oct-15 11:31N 46°10' W 123°55'0 0.0
2017-Oct-15 11:01N 46°10' W 123°55'2 4.0
2017-Oct-15 10:31N 46°12' W 123°56'816.3
2017-Oct-15 10:01N 46°13' W 124°08'2 3.3
2017-Oct-15 09:31N 46°12' W 124°09'4 7.5
2017-Oct-15 09:00N 46°15' W 124°05'917.2
2017-Oct-15 08:31N 46°11' W 123°54'1 2.4
2017-Oct-15 08:01N 46°10' W 123°55'0 0.0
2017-Oct-15 07:30N 46°10' W 123°55'0 0.0
2017-Oct-15 07:00N 46°10' W 123°55'0 0.0
2017-Oct-15 06:30N 46°10' W 123°55'0 0.0
2017-Oct-15 06:00N 46°10' W 123°55'0 0.0
2017-Oct-15 05:30N 46°10' W 123°55'4 7.0
2017-Oct-15 05:00N 46°12' W 123°51'510.4
2017-Oct-15 04:31N 46°13' W 123°58'714.5
2017-Oct-15 04:00N 46°13' W 124°08'2 4.9
2017-Oct-15 03:30N 46°12' W 124°12'2 3.3
2017-Oct-15 03:01N 46°11' W 124°14'4 7.9
2017-Oct-15 02:30N 46°13' W 124°08'1011.9
2017-Oct-15 01:41N 46°11' W 123°54'1 2.7
2017-Oct-15 01:20N 46°10' W 123°55'0 0.0
2017-Oct-15 01:00N 46°10' W 123°55'0 0.0
2017-Oct-15 00:31N 46°10' W 123°55'0 0.0
2017-Oct-15 00:00N 46°10' W 123°55'0 0.0
2017-Oct-14 23:31N 46°10' W 123°55'0 0.0
2017-Oct-14 22:53N 46°10' W 123°55'0 0.0
2017-Oct-14 22:31N 46°10' W 123°55'0 0.0
2017-Oct-14 22:01N 46°10' W 123°55'0 0.0
2017-Oct-14 21:31N 46°10' W 123°55'0 0.0
2017-Oct-14 21:01N 46°10' W 123°55'0 0.0
2017-Oct-14 20:31N 46°10' W 123°55'0 0.0
2017-Oct-14 20:01N 46°10' W 123°55'0 0.0
2017-Oct-14 19:31N 46°10' W 123°55'0 0.0
2017-Oct-14 19:01N 46°10' W 123°55'0 0.3
2017-Oct-14 18:31N 46°10' W 123°55'1 2.2
2017-Oct-14 18:00N 46°11' W 123°54'1020.0
2017-Oct-14 17:30N 46°13' W 124°09'1 1.2
2017-Oct-14 17:00N 46°13' W 124°08'0 0.6
2017-Oct-14 16:31N 46°13' W 124°07'5 9.2
2017-Oct-14 16:01N 46°16' W 124°03'816.1
2017-Oct-14 15:31N 46°11' W 123°54'1 1.9
2017-Oct-14 15:01N 46°10' W 123°55'2 3.5
2017-Oct-14 14:31N 46°12' W 123°56'918.1
2017-Oct-14 14:01N 46°13' W 124°09'2 4.4
2017-Oct-14 13:31N 46°15' W 124°06'917.7
2017-Oct-14 13:01N 46°10' W 123°55'0 0.4
2017-Oct-14 12:31N 46°10' W 123°55'0 0.0
2017-Oct-14 12:00N 46°10' W 123°55'0 0.0
2017-Oct-14 11:30N 46°10' W 123°55'0 0.0
2017-Oct-14 11:01N 46°10' W 123°55'0 0.3
2017-Oct-14 10:30N 46°10' W 123°55'0 0.3
2017-Oct-14 10:00N 46°10' W 123°55'0 0.0
2017-Oct-14 09:30N 46°10' W 123°55'0 0.0
2017-Oct-14 09:00N 46°10' W 123°55'0 0.0
2017-Oct-14 08:30N 46°10' W 123°55'0 0.0
2017-Oct-14 08:00N 46°10' W 123°55'0 0.0
2017-Oct-14 07:30N 46°10' W 123°55'0 0.0
2017-Oct-14 07:01N 46°10' W 123°55'0 0.0
2017-Oct-14 06:30N 46°10' W 123°55'713.4
2017-Oct-14 06:00N 46°15' W 124°01'4 7.3
2017-Oct-14 05:30N 46°14' W 124°06'4 8.9
2017-Oct-14 05:00N 46°15' W 123°60'3 5.4
2017-Oct-14 04:27N 46°12' W 123°57'3 5.6
2017-Oct-14 04:00N 46°10' W 123°55'0 0.4
2017-Oct-14 03:21N 46°10' W 123°55'0 0.0
2017-Oct-14 03:01N 46°10' W 123°55'0 0.0
2017-Oct-14 02:30N 46°10' W 123°55'0 0.0
2017-Oct-14 02:00N 46°10' W 123°55'0 0.0
2017-Oct-14 01:30N 46°10' W 123°55'0 0.0
2017-Oct-14 01:00N 46°10' W 123°55'0 0.0
2017-Oct-14 00:31N 46°10' W 123°55'0 0.0
2017-Oct-14 00:00N 46°10' W 123°55'0 0.0
2017-Oct-13 23:31N 46°10' W 123°55'0 0.3
2017-Oct-13 23:00N 46°10' W 123°55'714.5
2017-Oct-13 22:30N 46°15' W 124°02'3 5.3
2017-Oct-13 22:00N 46°15' W 124°06'4 5.1
2017-Oct-13 21:15N 46°13' W 124°11'310.4
2017-Oct-13 21:00N 46°14' W 124°07'713.9
2017-Oct-13 20:30N 46°13' W 123°57'3 6.7
2017-Oct-13 20:00N 46°10' W 123°55'0 0.0
2017-Oct-13 19:30N 46°10' W 123°55'0 0.0
2017-Oct-13 19:01N 46°10' W 123°55'0 0.0
2017-Oct-13 18:21N 46°10' W 123°55'0 0.0
2017-Oct-13 18:00N 46°10' W 123°55'0 0.0
2017-Oct-13 17:14N 46°10' W 123°55'0 0.0
2017-Oct-13 17:01N 46°10' W 123°55'0 0.0
2017-Oct-13 16:30N 46°10' W 123°55'0 0.0
2017-Oct-13 16:00N 46°10' W 123°55'0 0.0
2017-Oct-13 15:30N 46°10' W 123°55'0 0.0
2017-Oct-13 15:00N 46°10' W 123°55'0 0.0
2017-Oct-13 14:30N 46°10' W 123°55'0 0.0
2017-Oct-13 13:51N 46°10' W 123°55'0 0.0
2017-Oct-13 13:30N 46°10' W 123°55'0 0.0
2017-Oct-13 12:50N 46°10' W 123°55'0 0.0
2017-Oct-13 12:30N 46°10' W 123°55'0 0.0
2017-Oct-13 11:56N 46°10' W 123°55'0 0.0
2017-Oct-13 11:30N 46°10' W 123°55'0 0.1
2017-Oct-13 11:00N 46°10' W 123°55'0 0.1
2017-Oct-13 10:30N 46°10' W 123°55'0 0.0
2017-Oct-13 10:00N 46°10' W 123°55'0 0.0
2017-Oct-13 09:15N 46°10' W 123°55'0 0.0
2017-Oct-13 09:00N 46°10' W 123°55'0 0.0
2017-Oct-13 08:30N 46°10' W 123°55'0 0.0
2017-Oct-13 07:52N 46°10' W 123°55'0 0.0
2017-Oct-13 07:30N 46°10' W 123°55'0 0.0
2017-Oct-13 07:00N 46°10' W 123°55'0 0.0
2017-Oct-13 06:30N 46°10' W 123°55'0 0.0
2017-Oct-13 05:55N 46°10' W 123°55'0 0.0
2017-Oct-13 05:30N 46°10' W 123°55'0 0.0
2017-Oct-13 05:00N 46°10' W 123°55'0 0.0
2017-Oct-13 04:30N 46°10' W 123°55'0 0.0
2017-Oct-13 04:00N 46°10' W 123°55'0 0.0
2017-Oct-13 03:30N 46°10' W 123°55'0 0.0
2017-Oct-13 03:00N 46°10' W 123°55'0 0.0
2017-Oct-13 02:21N 46°10' W 123°55'0 0.0
2017-Oct-13 02:00N 46°10' W 123°55'0 0.0
2017-Oct-13 01:30N 46°10' W 123°55'0 0.0
2017-Oct-13 01:00N 46°10' W 123°55'0 0.0
2017-Oct-13 00:30N 46°10' W 123°55'0 0.0
2017-Oct-13 00:00N 46°10' W 123°55'0 0.0
2017-Oct-12 23:30N 46°10' W 123°55'0 0.0
2017-Oct-12 23:00N 46°10' W 123°55'0 0.0
2017-Oct-12 22:30N 46°10' W 123°55'0 0.0
2017-Oct-12 22:00N 46°10' W 123°55'0 0.0
2017-Oct-12 21:30N 46°10' W 123°55'0 0.0
2017-Oct-12 21:00N 46°10' W 123°55'0 0.0
2017-Oct-12 20:30N 46°10' W 123°55'0 0.0
2017-Oct-12 20:00N 46°10' W 123°55'0 0.0
2017-Oct-12 19:30N 46°10' W 123°55'0 0.0
2017-Oct-12 19:00N 46°10' W 123°55'0 0.0
2017-Oct-12 18:30N 46°10' W 123°55'0 0.0
2017-Oct-12 18:00N 46°10' W 123°55'0 0.0
2017-Oct-12 17:30N 46°10' W 123°55'0 0.0
2017-Oct-12 16:56N 46°10' W 123°55'0 0.0
2017-Oct-12 16:31N 46°10' W 123°55'0 0.0
2017-Oct-12 16:01N 46°10' W 123°55'0 0.0
2017-Oct-12 15:31N 46°10' W 123°55'0 0.0
2017-Oct-12 15:00N 46°10' W 123°55'0 0.0
2017-Oct-12 14:30N 46°10' W 123°55'0 0.0
2017-Oct-12 13:52N 46°10' W 123°55'0 0.0
2017-Oct-12 13:30N 46°10' W 123°55'0 0.0
2017-Oct-12 12:55N 46°10' W 123°55'0 0.0
2017-Oct-12 12:30N 46°10' W 123°55'0 0.3
2017-Oct-12 11:53N 46°10' W 123°55'821.6
2017-Oct-12 11:31N 46°15' W 124°04'814.4
2017-Oct-12 10:57N 46°10' W 124°13'614.3
2017-Oct-12 10:31N 46°14' W 124°06'913.5
2017-Oct-12 09:51N 46°10' W 123°55'0 0.0
2017-Oct-12 09:30N 46°10' W 123°55'0 0.0
2017-Oct-12 08:56N 46°10' W 123°55'0 0.0
2017-Oct-12 08:30N 46°10' W 123°55'0 0.0
2017-Oct-12 07:44N 46°10' W 123°55'0 0.0
2017-Oct-12 07:30N 46°10' W 123°55'0 0.0
2017-Oct-12 07:00N 46°10' W 123°55'0 0.0
2017-Oct-12 06:30N 46°10' W 123°55'0 0.0
2017-Oct-12 06:00N 46°10' W 123°55'0 0.0
2017-Oct-12 05:26N 46°10' W 123°55'0 0.0
2017-Oct-12 05:00N 46°10' W 123°55'0 0.0
2017-Oct-12 04:30N 46°10' W 123°55'0 0.0
2017-Oct-12 04:01N 46°10' W 123°55'0 0.0
2017-Oct-12 03:30N 46°10' W 123°55'0 0.0
2017-Oct-12 03:00N 46°10' W 123°55'816.5
2017-Oct-12 02:31N 46°15' W 124°04'510.5
2017-Oct-12 02:00N 46°12' W 124°10'2 3.9
2017-Oct-12 01:30N 46°13' W 124°09'1 2.9
2017-Oct-12 01:00N 46°13' W 124°07'917.8
2017-Oct-12 00:31N 46°10' W 123°55'0 0.0
2017-Oct-11 23:50N 46°10' W 123°55'0 0.0
2017-Oct-11 23:30N 46°10' W 123°55'0 0.0
2017-Oct-11 23:00N 46°10' W 123°55'0 0.0
2017-Oct-11 22:20N 46°10' W 123°55'0 0.0
2017-Oct-11 21:58N 46°10' W 123°55'0 0.0
2017-Oct-11 21:30N 46°10' W 123°55'0 0.0
2017-Oct-11 21:00N 46°10' W 123°55'0 0.0
2017-Oct-11 20:30N 46°10' W 123°55'0 0.0
2017-Oct-11 20:00N 46°10' W 123°55'0 0.0
2017-Oct-11 19:30N 46°10' W 123°55'1 2.9
2017-Oct-11 19:00N 46°12' W 123°55'918.1
2017-Oct-11 18:31N 46°13' W 124°08'2 3.3
2017-Oct-11 18:00N 46°14' W 124°06'713.3
2017-Oct-11 17:31N 46°13' W 123°57'2 4.9
2017-Oct-11 17:01N 46°12' W 123°54'9 0.6
2017-Oct-11 00:00N 46°11' W 124°08'1 1.5
2017-Oct-10 23:30N 46°12' W 124°08'1 2.6
2017-Oct-10 23:00N 46°13' W 124°08'917.3
2017-Oct-10 22:30N 46°12' W 123°55'2 3.5
2017-Oct-10 22:00N 46°10' W 123°55'0 0.0
2017-Oct-10 21:30N 46°10' W 123°55'0 0.0
2017-Oct-10 21:00N 46°10' W 123°55'0 0.0
2017-Oct-10 20:30N 46°10' W 123°55'0 0.0
2017-Oct-10 20:01N 46°10' W 123°55'0 0.0
2017-Oct-10 19:30N 46°10' W 123°55'0 0.0
2017-Oct-10 19:01N 46°10' W 123°55'612.6
2017-Oct-10 18:30N 46°15' W 124°01'918.5
2017-Oct-10 18:00N 46°10' W 124°12'613.0
2017-Oct-10 17:30N 46°15' W 124°06'917.5
2017-Oct-10 17:00N 46°10' W 123°55'0 1.0
2017-Oct-10 16:31N 46°10' W 123°55'0 0.0
2017-Oct-10 16:00N 46°10' W 123°55'0 0.0
2017-Oct-10 15:26N 46°10' W 123°55'0 0.0
2017-Oct-10 15:00N 46°10' W 123°55'0 0.0
2017-Oct-10 14:00N 46°10' W 123°55'0 0.0
2017-Oct-10 13:30N 46°10' W 123°55'0 0.0
2017-Oct-10 13:01N 46°10' W 123°55'0 0.0
2017-Oct-10 12:15N 46°10' W 123°55'0 0.0
2017-Oct-10 12:00N 46°10' W 123°55'0 0.0
2017-Oct-10 11:31N 46°10' W 123°55'0 0.0
2017-Oct-10 11:01N 46°10' W 123°55'0 0.0
2017-Oct-10 10:30N 46°10' W 123°55'0 0.0
2017-Oct-10 10:01N 46°10' W 123°55'0 0.0
2017-Oct-10 09:18N 46°10' W 123°55'0 0.0
2017-Oct-10 08:51N 46°10' W 123°55'0 0.0
2017-Oct-10 08:31N 46°10' W 123°55'0 0.0
2017-Oct-10 08:00N 46°10' W 123°55'0 0.0
2017-Oct-10 07:31N 46°10' W 123°55'0 0.0
2017-Oct-10 07:00N 46°10' W 123°55'0 0.0
2017-Oct-10 06:30N 46°10' W 123°55'0 0.0
2017-Oct-10 05:56N 46°10' W 123°55'0 0.0
2017-Oct-10 05:30N 46°10' W 123°55'0 0.0
2017-Oct-10 05:01N 46°10' W 123°55'0 0.0
2017-Oct-10 04:30N 46°10' W 123°55'0 0.0
2017-Oct-10 03:51N 46°10' W 123°55'0 0.0
2017-Oct-10 03:30N 46°10' W 123°55'0 0.0
2017-Oct-10 02:56N 46°10' W 123°55'0 0.0
2017-Oct-10 02:31N 46°10' W 123°55'0 0.0
2017-Oct-10 02:00N 46°10' W 123°55'0 0.0
2017-Oct-10 01:11N 46°10' W 123°55'0 0.0
2017-Oct-10 01:00N 46°10' W 123°55'0 0.0
2017-Oct-10 00:31N 46°10' W 123°55'0 0.0
2017-Oct-10 00:01N 46°10' W 123°55'0 0.0
2017-Oct-09 23:31N 46°10' W 123°55'0 0.0
2017-Oct-09 23:00N 46°10' W 123°55'0 0.0
2017-Oct-09 22:31N 46°10' W 123°55'0 0.0
2017-Oct-09 22:00N 46°10' W 123°55'0 0.0
2017-Oct-09 21:31N 46°10' W 123°55'0 0.0
2017-Oct-09 21:01N 46°10' W 123°55'0 0.0
2017-Oct-09 20:30N 46°10' W 123°55'0 0.0
2017-Oct-09 20:01N 46°10' W 123°55'0 0.0
2017-Oct-09 19:30N 46°10' W 123°55'0 0.0
2017-Oct-09 19:01N 46°10' W 123°55'0 0.0
2017-Oct-09 18:31N 46°10' W 123°55'0 0.0
2017-Oct-09 18:00N 46°10' W 123°55'0 0.0
2017-Oct-09 17:30N 46°10' W 123°55'0 0.0
2017-Oct-09 17:00N 46°10' W 123°55'0 0.0
2017-Oct-09 16:31N 46°10' W 123°55'0 0.0
2017-Oct-09 16:01N 46°10' W 123°55'0 0.0
2017-Oct-09 15:31N 46°10' W 123°55'0 0.0
2017-Oct-09 15:01N 46°10' W 123°55'0 0.0
2017-Oct-09 14:30N 46°10' W 123°55'0 0.0
2017-Oct-09 14:00N 46°10' W 123°55'0 0.0
2017-Oct-09 13:30N 46°10' W 123°55'0 0.0
2017-Oct-09 13:00N 46°10' W 123°55'0 0.0
2017-Oct-09 12:30N 46°10' W 123°55'0 0.0
2017-Oct-09 12:01N 46°10' W 123°55'0 0.0
2017-Oct-09 11:30N 46°10' W 123°55'0 0.0
2017-Oct-09 10:59N 46°10' W 123°55'0 0.0
2017-Oct-09 10:13N 46°10' W 123°55'0 0.0
2017-Oct-09 10:01N 46°10' W 123°55'0 0.0
2017-Oct-09 09:30N 46°10' W 123°55'0 0.0
2017-Oct-09 09:00N 46°10' W 123°55'0 0.0
2017-Oct-09 08:31N 46°10' W 123°55'0 0.0
2017-Oct-09 08:00N 46°10' W 123°55'0 0.0
2017-Oct-09 07:30N 46°10' W 123°55'0 0.0
2017-Oct-09 07:00N 46°10' W 123°55'0 0.0
2017-Oct-09 06:30N 46°10' W 123°55'0 0.0
2017-Oct-09 06:01N 46°10' W 123°55'0 0.0
2017-Oct-09 05:30N 46°10' W 123°55'0 0.0
2017-Oct-09 05:00N 46°10' W 123°55'0 0.0
2017-Oct-09 04:30N 46°10' W 123°55'0 0.0
2017-Oct-09 04:00N 46°10' W 123°55'0 0.0
2017-Oct-09 03:31N 46°10' W 123°55'0 0.0
2017-Oct-09 03:00N 46°10' W 123°55'0 0.0
2017-Oct-09 02:30N 46°10' W 123°55'0 0.0
2017-Oct-09 02:00N 46°10' W 123°55'0 0.0
2017-Oct-09 01:31N 46°10' W 123°55'0 0.0
2017-Oct-09 00:49N 46°10' W 123°55'0 0.0
2017-Oct-09 00:31N 46°10' W 123°55'0 0.0
2017-Oct-09 00:01N 46°10' W 123°55'0 0.0
2017-Oct-08 23:30N 46°10' W 123°55'0 0.0
2017-Oct-08 23:00N 46°10' W 123°55'0 0.0
2017-Oct-08 22:16N 46°10' W 123°55'0 0.0
2017-Oct-08 22:01N 46°10' W 123°55'0 0.0
2017-Oct-08 21:30N 46°10' W 123°55'0 0.0
2017-Oct-08 21:00N 46°10' W 123°55'0 0.0
2017-Oct-08 20:31N 46°10' W 123°55'0 0.0
2017-Oct-08 20:01N 46°10' W 123°55'0 0.0
2017-Oct-08 19:31N 46°10' W 123°55'0 0.0
2017-Oct-08 19:01N 46°10' W 123°55'0 0.0
2017-Oct-08 18:31N 46°10' W 123°55'0 0.0
2017-Oct-08 17:47N 46°10' W 123°55'0 0.0
2017-Oct-08 17:30N 46°10' W 123°55'0 0.0
2017-Oct-08 17:00N 46°10' W 123°55'0 0.0
2017-Oct-08 16:30N 46°10' W 123°55'0 0.0
2017-Oct-08 16:00N 46°10' W 123°55'0 0.0
2017-Oct-08 15:31N 46°10' W 123°55'0 0.0
2017-Oct-08 14:47N 46°10' W 123°55'0 0.0
2017-Oct-08 14:25N 46°10' W 123°55'0 0.0
2017-Oct-08 14:00N 46°10' W 123°55'0 0.0
2017-Oct-08 13:30N 46°10' W 123°55'0 0.0
2017-Oct-08 13:01N 46°10' W 123°55'0 0.0
2017-Oct-08 12:30N 46°10' W 123°55'0 0.0
2017-Oct-08 12:01N 46°10' W 123°55'0 0.0
2017-Oct-08 11:30N 46°10' W 123°55'0 0.0
2017-Oct-08 11:00N 46°10' W 123°55'0 0.0
2017-Oct-08 10:30N 46°10' W 123°55'0 0.0
2017-Oct-08 10:00N 46°10' W 123°55'0 0.0
2017-Oct-08 09:31N 46°10' W 123°55'0 0.0
2017-Oct-08 09:01N 46°10' W 123°55'0 0.0
2017-Oct-08 08:20N 46°10' W 123°55'0 0.0
2017-Oct-08 08:01N 46°10' W 123°55'0 0.0
2017-Oct-08 07:30N 46°10' W 123°55'0 0.0
2017-Oct-08 07:00N 46°10' W 123°55'0 0.0
2017-Oct-08 06:30N 46°10' W 123°55'0 0.0
2017-Oct-08 06:00N 46°10' W 123°55'0 0.0
2017-Oct-08 05:30N 46°10' W 123°55'0 0.0
2017-Oct-08 05:00N 46°10' W 123°55'0 0.0
2017-Oct-08 04:30N 46°10' W 123°55'0 0.0
2017-Oct-08 04:00N 46°10' W 123°55'0 0.0
2017-Oct-08 03:19N 46°10' W 123°55'0 0.0
2017-Oct-08 03:01N 46°10' W 123°55'0 0.0
2017-Oct-08 02:30N 46°10' W 123°55'0 0.0
2017-Oct-08 02:01N 46°10' W 123°55'0 0.0
2017-Oct-08 01:31N 46°10' W 123°55'0 0.0
2017-Oct-08 00:58N 46°10' W 123°55'0 0.0
2017-Oct-08 00:30N 46°10' W 123°55'0 0.0
2017-Oct-08 00:00N 46°10' W 123°55'0 0.0
2017-Oct-07 23:31N 46°10' W 123°55'0 0.0
2017-Oct-07 23:00N 46°10' W 123°55'0 0.0
2017-Oct-07 22:31N 46°10' W 123°55'0 0.0
2017-Oct-07 22:00N 46°10' W 123°55'0 0.0
2017-Oct-07 21:31N 46°10' W 123°55'0 0.0
2017-Oct-07 21:00N 46°10' W 123°55'0 0.0
2017-Oct-07 20:30N 46°10' W 123°55'0 0.0
2017-Oct-07 20:00N 46°10' W 123°55'0 0.0
2017-Oct-07 19:30N 46°10' W 123°55'0 0.0
2017-Oct-07 19:00N 46°10' W 123°55'0 0.0
2017-Oct-07 18:30N 46°10' W 123°55'0 0.0
2017-Oct-07 18:00N 46°10' W 123°55'0 0.0
2017-Oct-07 17:30N 46°10' W 123°55'0 0.0
2017-Oct-07 16:21N 46°10' W 123°55'0 0.0
2017-Oct-07 15:59N 46°10' W 123°55'0 0.0
2017-Oct-07 15:30N 46°10' W 123°55'  
Track history (hours):
 
Tides and Currents Weather Stations Pressure Air Temp Water Temp Dewpoint Dewpoint Depression Visibility Wind Speed Wind Dir Waves Ship Positions

Columbia

Owner: Saddle Mountain Inc., Astoria, OR. More information available from US FCC via Universal Licensing System.

Last reported at 2017-Oct-17 15:30 UTC. Time now 2017-Oct-17 15:46 UTC.
Position N 46°10' W 123°55'.

Length 23 m; draft 1 m.

Type: Pilot. MMSI: 3699090.

Date/timePositionNaut miles runAvg speedWind from/ knotsBaromVisibWave heightAir tempDewpointWater temp
2017-Oct-17 15:30N 46°10' W 123°55'0 0.0
2017-Oct-17 15:00N 46°10' W 123°55'0 0.0
2017-Oct-17 14:30N 46°10' W 123°55'0 0.0
2017-Oct-17 14:01N 46°10' W 123°55'0 0.0
2017-Oct-17 13:30N 46°10' W 123°55'0 0.0
2017-Oct-17 13:00N 46°10' W 123°55'0 0.0
2017-Oct-17 12:30N 46°10' W 123°55'0 0.0
2017-Oct-17 12:00N 46°10' W 123°55'0 0.0
2017-Oct-17 11:31N 46°10' W 123°55'0 0.0
2017-Oct-17 11:00N 46°10' W 123°55'0 0.0
2017-Oct-17 10:30N 46°10' W 123°55'0 0.0
2017-Oct-17 10:00N 46°10' W 123°55'0 0.0
2017-Oct-17 09:30N 46°10' W 123°55'0 0.0
2017-Oct-17 09:00N 46°10' W 123°55'0 0.0
2017-Oct-17 08:30N 46°10' W 123°55'0 0.0
2017-Oct-17 08:00N 46°10' W 123°55'0 0.0
2017-Oct-17 07:30N 46°10' W 123°55'0 0.0
2017-Oct-17 07:00N 46°10' W 123°55'0 0.0
2017-Oct-17 06:30N 46°10' W 123°55'0 0.0
2017-Oct-17 06:00N 46°10' W 123°55'0 0.0
2017-Oct-17 05:30N 46°10' W 123°55'0 0.0
2017-Oct-17 05:01N 46°10' W 123°55'0 0.0
2017-Oct-17 04:30N 46°10' W 123°55'0 0.0
2017-Oct-17 04:00N 46°10' W 123°55'0 0.0
2017-Oct-17 03:31N 46°10' W 123°55'0 0.0
2017-Oct-17 03:01N 46°10' W 123°55'0 0.0
2017-Oct-17 02:30N 46°10' W 123°55'0 0.0
2017-Oct-17 02:00N 46°10' W 123°55'0 0.0
2017-Oct-17 01:31N 46°10' W 123°55'0 0.0
2017-Oct-17 01:00N 46°10' W 123°55'0 0.3
2017-Oct-17 00:31N 46°10' W 123°55'0 0.3
2017-Oct-17 00:00N 46°10' W 123°55'0 0.0
2017-Oct-16 23:30N 46°10' W 123°55'0 0.0
2017-Oct-16 23:00N 46°10' W 123°55'0 0.0
2017-Oct-16 22:31N 46°10' W 123°55'0 0.0
2017-Oct-16 22:00N 46°10' W 123°55'0 0.0
2017-Oct-16 21:30N 46°10' W 123°55'0 0.0
2017-Oct-16 21:00N 46°10' W 123°55'0 0.0
2017-Oct-16 20:30N 46°10' W 123°55'0 0.0
2017-Oct-16 20:00N 46°10' W 123°55'5 9.8
2017-Oct-16 19:31N 46°14' W 123°59'815.8
2017-Oct-16 19:00N 46°13' W 124°10'3 5.7
2017-Oct-16 18:31N 46°14' W 124°07'918.1
2017-Oct-16 18:01N 46°11' W 123°54'1 1.7
2017-Oct-16 17:31N 46°10' W 123°55'0 0.0
2017-Oct-16 17:01N 46°10' W 123°55'0 0.5
2017-Oct-16 16:30N 46°10' W 123°55'713.4
2017-Oct-16 16:01N 46°15' W 124°01'611.2
2017-Oct-16 15:31N 46°13' W 124°08'3 5.7
2017-Oct-16 15:00N 46°11' W 124°12'9 9.5
2017-Oct-16 14:01N 46°15' W 123°59'510.9
2017-Oct-16 13:31N 46°10' W 123°55'0 0.3
2017-Oct-16 13:01N 46°10' W 123°55'0 0.0
2017-Oct-16 12:31N 46°10' W 123°55'0 0.0
2017-Oct-16 12:00N 46°10' W 123°55'0 0.0
2017-Oct-16 11:31N 46°10' W 123°55'0 0.3
2017-Oct-16 11:01N 46°10' W 123°55'4 7.1
2017-Oct-16 10:30N 46°13' W 123°58'815.7
2017-Oct-16 10:00N 46°12' W 124°09'0 0.5
2017-Oct-16 09:31N 46°12' W 124°09'510.9
2017-Oct-16 09:01N 46°16' W 124°03'713.5
2017-Oct-16 08:31N 46°12' W 123°55'2 3.0
2017-Oct-16 08:01N 46°10' W 123°55'0 0.0
2017-Oct-16 07:22N 46°10' W 123°55'0 0.0
2017-Oct-16 07:01N 46°10' W 123°55'0 0.0
2017-Oct-16 06:30N 46°10' W 123°55'0 0.8
2017-Oct-16 06:01N 46°10' W 123°55'918.3
2017-Oct-16 05:31N 46°14' W 124°07'2 4.7
2017-Oct-16 05:01N 46°12' W 124°09'2 4.5
2017-Oct-16 04:31N 46°13' W 124°13'1020.5
2017-Oct-16 04:01N 46°13' W 123°58'4 7.5
2017-Oct-16 03:31N 46°10' W 123°55'0 0.0
2017-Oct-16 03:00N 46°10' W 123°55'0 0.0
2017-Oct-16 02:30N 46°10' W 123°55'3 6.3
2017-Oct-16 02:01N 46°13' W 123°57'816.0
2017-Oct-16 01:31N 46°13' W 124°09'1 1.8
2017-Oct-16 01:01N 46°14' W 124°09'1 2.7
2017-Oct-16 00:30N 46°13' W 124°08'0 0.7
2017-Oct-16 00:01N 46°13' W 124°08'1019.3
2017-Oct-15 23:31N 46°11' W 123°55'1 1.3
2017-Oct-15 23:00N 46°10' W 123°55'0 0.0
2017-Oct-15 22:31N 46°10' W 123°55'0 0.0
2017-Oct-15 22:01N 46°10' W 123°55'0 0.0
2017-Oct-15 21:30N 46°10' W 123°55'0 0.0
2017-Oct-15 21:01N 46°10' W 123°55'0 0.0
2017-Oct-15 20:30N 46°10' W 123°55'0 0.0
2017-Oct-15 20:01N 46°10' W 123°55'0 0.0
2017-Oct-15 19:25N 46°10' W 123°55'0 0.3
2017-Oct-15 19:00N 46°10' W 123°55'3 6.9
2017-Oct-15 18:30N 46°13' W 123°57'1122.0
2017-Oct-15 18:01N 46°13' W 124°13'2 4.4
2017-Oct-15 17:30N 46°11' W 124°16'2 4.9
2017-Oct-15 17:00N 46°11' W 124°12'0 0.6
2017-Oct-15 16:31N 46°12' W 124°12'714.4
2017-Oct-15 16:01N 46°15' W 124°03'714.1
2017-Oct-15 15:30N 46°10' W 123°55'0 0.0
2017-Oct-15 15:00N 46°10' W 123°55'0 0.0
2017-Oct-15 13:54N 46°10' W 123°55'0 0.0
2017-Oct-15 13:31N 46°10' W 123°55'0 0.0
2017-Oct-15 13:01N 46°10' W 123°55'0 0.0
2017-Oct-15 12:31N 46°10' W 123°55'0 0.0
2017-Oct-15 12:00N 46°10' W 123°55'0 0.0
2017-Oct-15 11:31N 46°10' W 123°55'0 0.0
2017-Oct-15 11:01N 46°10' W 123°55'2 4.0
2017-Oct-15 10:31N 46°12' W 123°56'816.3
2017-Oct-15 10:01N 46°13' W 124°08'2 3.3
2017-Oct-15 09:31N 46°12' W 124°09'4 7.5
2017-Oct-15 09:00N 46°15' W 124°05'917.2
2017-Oct-15 08:31N 46°11' W 123°54'1 2.4
2017-Oct-15 08:01N 46°10' W 123°55'0 0.0
2017-Oct-15 07:30N 46°10' W 123°55'0 0.0
2017-Oct-15 07:00N 46°10' W 123°55'0 0.0
2017-Oct-15 06:30N 46°10' W 123°55'0 0.0
2017-Oct-15 06:00N 46°10' W 123°55'0 0.0
2017-Oct-15 05:30N 46°10' W 123°55'4 7.0
2017-Oct-15 05:00N 46°12' W 123°51'510.4
2017-Oct-15 04:31N 46°13' W 123°58'714.5
2017-Oct-15 04:00N 46°13' W 124°08'2 4.9
2017-Oct-15 03:30N 46°12' W 124°12'2 3.3
2017-Oct-15 03:01N 46°11' W 124°14'4 7.9
2017-Oct-15 02:30N 46°13' W 124°08'1011.9
2017-Oct-15 01:41N 46°11' W 123°54'1 2.7
2017-Oct-15 01:20N 46°10' W 123°55'0 0.0
2017-Oct-15 01:00N 46°10' W 123°55'0 0.0
2017-Oct-15 00:31N 46°10' W 123°55'0 0.0
2017-Oct-15 00:00N 46°10' W 123°55'0 0.0
2017-Oct-14 23:31N 46°10' W 123°55'0 0.0
2017-Oct-14 22:53N 46°10' W 123°55'0 0.0
2017-Oct-14 22:31N 46°10' W 123°55'0 0.0
2017-Oct-14 22:01N 46°10' W 123°55'0 0.0
2017-Oct-14 21:31N 46°10' W 123°55'0 0.0
2017-Oct-14 21:01N 46°10' W 123°55'0 0.0
2017-Oct-14 20:31N 46°10' W 123°55'0 0.0
2017-Oct-14 20:01N 46°10' W 123°55'0 0.0
2017-Oct-14 19:31N 46°10' W 123°55'0 0.0
2017-Oct-14 19:01N 46°10' W 123°55'0 0.3
2017-Oct-14 18:31N 46°10' W 123°55'1 2.2
2017-Oct-14 18:00N 46°11' W 123°54'1020.0
2017-Oct-14 17:30N 46°13' W 124°09'1 1.2
2017-Oct-14 17:00N 46°13' W 124°08'0 0.6
2017-Oct-14 16:31N 46°13' W 124°07'5 9.2
2017-Oct-14 16:01N 46°16' W 124°03'816.1
2017-Oct-14 15:31N 46°11' W 123°54'1 1.9
2017-Oct-14 15:01N 46°10' W 123°55'2 3.5
2017-Oct-14 14:31N 46°12' W 123°56'918.1
2017-Oct-14 14:01N 46°13' W 124°09'2 4.4
2017-Oct-14 13:31N 46°15' W 124°06'917.7
2017-Oct-14 13:01N 46°10' W 123°55'0 0.4
2017-Oct-14 12:31N 46°10' W 123°55'0 0.0
2017-Oct-14 12:00N 46°10' W 123°55'0 0.0
2017-Oct-14 11:30N 46°10' W 123°55'0 0.0
2017-Oct-14 11:01N 46°10' W 123°55'0 0.3
2017-Oct-14 10:30N 46°10' W 123°55'0 0.3
2017-Oct-14 10:00N 46°10' W 123°55'0 0.0
2017-Oct-14 09:30N 46°10' W 123°55'0 0.0
2017-Oct-14 09:00N 46°10' W 123°55'0 0.0
2017-Oct-14 08:30N 46°10' W 123°55'0 0.0
2017-Oct-14 08:00N 46°10' W 123°55'0 0.0
2017-Oct-14 07:30N 46°10' W 123°55'0 0.0
2017-Oct-14 07:01N 46°10' W 123°55'0 0.0
2017-Oct-14 06:30N 46°10' W 123°55'713.4
2017-Oct-14 06:00N 46°15' W 124°01'4 7.3
2017-Oct-14 05:30N 46°14' W 124°06'4 8.9
2017-Oct-14 05:00N 46°15' W 123°60'3 5.4
2017-Oct-14 04:27N 46°12' W 123°57'3 5.6
2017-Oct-14 04:00N 46°10' W 123°55'0 0.4
2017-Oct-14 03:21N 46°10' W 123°55'0 0.0
2017-Oct-14 03:01N 46°10' W 123°55'0 0.0
2017-Oct-14 02:30N 46°10' W 123°55'0 0.0
2017-Oct-14 02:00N 46°10' W 123°55'0 0.0
2017-Oct-14 01:30N 46°10' W 123°55'0 0.0
2017-Oct-14 01:00N 46°10' W 123°55'0 0.0
2017-Oct-14 00:31N 46°10' W 123°55'0 0.0
2017-Oct-14 00:00N 46°10' W 123°55'0 0.0
2017-Oct-13 23:31N 46°10' W 123°55'0 0.3
2017-Oct-13 23:00N 46°10' W 123°55'714.5
2017-Oct-13 22:30N 46°15' W 124°02'3 5.3
2017-Oct-13 22:00N 46°15' W 124°06'4 5.1
2017-Oct-13 21:15N 46°13' W 124°11'310.4
2017-Oct-13 21:00N 46°14' W 124°07'713.9
2017-Oct-13 20:30N 46°13' W 123°57'3 6.7
2017-Oct-13 20:00N 46°10' W 123°55'0 0.0
2017-Oct-13 19:30N 46°10' W 123°55'0 0.0
2017-Oct-13 19:01N 46°10' W 123°55'0 0.0
2017-Oct-13 18:21N 46°10' W 123°55'0 0.0
2017-Oct-13 18:00N 46°10' W 123°55'0 0.0
2017-Oct-13 17:14N 46°10' W 123°55'0 0.0
2017-Oct-13 17:01N 46°10' W 123°55'0 0.0
2017-Oct-13 16:30N 46°10' W 123°55'0 0.0
2017-Oct-13 16:00N 46°10' W 123°55'0 0.0
2017-Oct-13 15:30N 46°10' W 123°55'0 0.0
2017-Oct-13 15:00N 46°10' W 123°55'0 0.0
2017-Oct-13 14:30N 46°10' W 123°55'0 0.0
2017-Oct-13 13:51N 46°10' W 123°55'0 0.0
2017-Oct-13 13:30N 46°10' W 123°55'0 0.0
2017-Oct-13 12:50N 46°10' W 123°55'0 0.0
2017-Oct-13 12:30N 46°10' W 123°55'0 0.0
2017-Oct-13 11:56N 46°10' W 123°55'0 0.0
2017-Oct-13 11:30N 46°10' W 123°55'0 0.1
2017-Oct-13 11:00N 46°10' W 123°55'0 0.1
2017-Oct-13 10:30N 46°10' W 123°55'0 0.0
2017-Oct-13 10:00N 46°10' W 123°55'0 0.0
2017-Oct-13 09:15N 46°10' W 123°55'0 0.0
2017-Oct-13 09:00N 46°10' W 123°55'0 0.0
2017-Oct-13 08:30N 46°10' W 123°55'0 0.0
2017-Oct-13 07:52N 46°10' W 123°55'0 0.0
2017-Oct-13 07:30N 46°10' W 123°55'0 0.0
2017-Oct-13 07:00N 46°10' W 123°55'0 0.0
2017-Oct-13 06:30N 46°10' W 123°55'0 0.0
2017-Oct-13 05:55N 46°10' W 123°55'0 0.0
2017-Oct-13 05:30N 46°10' W 123°55'0 0.0
2017-Oct-13 05:00N 46°10' W 123°55'0 0.0
2017-Oct-13 04:30N 46°10' W 123°55'0 0.0
2017-Oct-13 04:00N 46°10' W 123°55'0 0.0
2017-Oct-13 03:30N 46°10' W 123°55'0 0.0
2017-Oct-13 03:00N 46°10' W 123°55'0 0.0
2017-Oct-13 02:21N 46°10' W 123°55'0 0.0
2017-Oct-13 02:00N 46°10' W 123°55'0 0.0
2017-Oct-13 01:30N 46°10' W 123°55'0 0.0
2017-Oct-13 01:00N 46°10' W 123°55'0 0.0
2017-Oct-13 00:30N 46°10' W 123°55'0 0.0
2017-Oct-13 00:00N 46°10' W 123°55'0 0.0
2017-Oct-12 23:30N 46°10' W 123°55'0 0.0
2017-Oct-12 23:00N 46°10' W 123°55'0 0.0
2017-Oct-12 22:30N 46°10' W 123°55'0 0.0
2017-Oct-12 22:00N 46°10' W 123°55'0 0.0
2017-Oct-12 21:30N 46°10' W 123°55'0 0.0
2017-Oct-12 21:00N 46°10' W 123°55'0 0.0
2017-Oct-12 20:30N 46°10' W 123°55'0 0.0
2017-Oct-12 20:00N 46°10' W 123°55'0 0.0
2017-Oct-12 19:30N 46°10' W 123°55'0 0.0
2017-Oct-12 19:00N 46°10' W 123°55'0 0.0
2017-Oct-12 18:30N 46°10' W 123°55'0 0.0
2017-Oct-12 18:00N 46°10' W 123°55'0 0.0
2017-Oct-12 17:30N 46°10' W 123°55'0 0.0
2017-Oct-12 16:56N 46°10' W 123°55'0 0.0
2017-Oct-12 16:31N 46°10' W 123°55'0 0.0
2017-Oct-12 16:01N 46°10' W 123°55'0 0.0
2017-Oct-12 15:31N 46°10' W 123°55'0 0.0
2017-Oct-12 15:00N 46°10' W 123°55'0 0.0
2017-Oct-12 14:30N 46°10' W 123°55'0 0.0
2017-Oct-12 13:52N 46°10' W 123°55'0 0.0
2017-Oct-12 13:30N 46°10' W 123°55'0 0.0
2017-Oct-12 12:55N 46°10' W 123°55'0 0.0
2017-Oct-12 12:30N 46°10' W 123°55'0 0.3
2017-Oct-12 11:53N 46°10' W 123°55'821.6
2017-Oct-12 11:31N 46°15' W 124°04'814.4
2017-Oct-12 10:57N 46°10' W 124°13'614.3
2017-Oct-12 10:31N 46°14' W 124°06'913.5
2017-Oct-12 09:51N 46°10' W 123°55'0 0.0
2017-Oct-12 09:30N 46°10' W 123°55'0 0.0
2017-Oct-12 08:56N 46°10' W 123°55'0 0.0
2017-Oct-12 08:30N 46°10' W 123°55'0 0.0
2017-Oct-12 07:44N 46°10' W 123°55'0 0.0
2017-Oct-12 07:30N 46°10' W 123°55'0 0.0
2017-Oct-12 07:00N 46°10' W 123°55'0 0.0
2017-Oct-12 06:30N 46°10' W 123°55'0 0.0
2017-Oct-12 06:00N 46°10' W 123°55'0 0.0
2017-Oct-12 05:26N 46°10' W 123°55'0 0.0
2017-Oct-12 05:00N 46°10' W 123°55'0 0.0
2017-Oct-12 04:30N 46°10' W 123°55'0 0.0
2017-Oct-12 04:01N 46°10' W 123°55'0 0.0
2017-Oct-12 03:30N 46°10' W 123°55'0 0.0
2017-Oct-12 03:00N 46°10' W 123°55'816.5
2017-Oct-12 02:31N 46°15' W 124°04'510.5
2017-Oct-12 02:00N 46°12' W 124°10'2 3.9
2017-Oct-12 01:30N 46°13' W 124°09'1 2.9
2017-Oct-12 01:00N 46°13' W 124°07'917.8
2017-Oct-12 00:31N 46°10' W 123°55'0 0.0
2017-Oct-11 23:50N 46°10' W 123°55'0 0.0
2017-Oct-11 23:30N 46°10' W 123°55'0 0.0
2017-Oct-11 23:00N 46°10' W 123°55'0 0.0
2017-Oct-11 22:20N 46°10' W 123°55'0 0.0
2017-Oct-11 21:58N 46°10' W 123°55'0 0.0
2017-Oct-11 21:30N 46°10' W 123°55'0 0.0
2017-Oct-11 21:00N 46°10' W 123°55'0 0.0
2017-Oct-11 20:30N 46°10' W 123°55'0 0.0
2017-Oct-11 20:00N 46°10' W 123°55'0 0.0
2017-Oct-11 19:30N 46°10' W 123°55'1 2.9
2017-Oct-11 19:00N 46°12' W 123°55'918.1
2017-Oct-11 18:31N 46°13' W 124°08'2 3.3
2017-Oct-11 18:00N 46°14' W 124°06'713.3
2017-Oct-11 17:31N 46°13' W 123°57'2 4.9
2017-Oct-11 17:01N 46°12' W 123°54'9 0.6
2017-Oct-11 00:00N 46°11' W 124°08'1 1.5
2017-Oct-10 23:30N 46°12' W 124°08'1 2.6
2017-Oct-10 23:00N 46°13' W 124°08'917.3
2017-Oct-10 22:30N 46°12' W 123°55'2 3.5
2017-Oct-10 22:00N 46°10' W 123°55'0 0.0
2017-Oct-10 21:30N 46°10' W 123°55'0 0.0
2017-Oct-10 21:00N 46°10' W 123°55'0 0.0
2017-Oct-10 20:30N 46°10' W 123°55'0 0.0
2017-Oct-10 20:01N 46°10' W 123°55'0 0.0
2017-Oct-10 19:30N 46°10' W 123°55'0 0.0
2017-Oct-10 19:01N 46°10' W 123°55'612.6
2017-Oct-10 18:30N 46°15' W 124°01'918.5
2017-Oct-10 18:00N 46°10' W 124°12'613.0
2017-Oct-10 17:30N 46°15' W 124°06'917.5
2017-Oct-10 17:00N 46°10' W 123°55'0 1.0
2017-Oct-10 16:31N 46°10' W 123°55'0 0.0
2017-Oct-10 16:00N 46°10' W 123°55'0 0.0
2017-Oct-10 15:26N 46°10' W 123°55'0 0.0
2017-Oct-10 15:00N 46°10' W 123°55'0 0.0
2017-Oct-10 14:00N 46°10' W 123°55'0 0.0
2017-Oct-10 13:30N 46°10' W 123°55'0 0.0
2017-Oct-10 13:01N 46°10' W 123°55'0 0.0
2017-Oct-10 12:15N 46°10' W 123°55'0 0.0
2017-Oct-10 12:00N 46°10' W 123°55'0 0.0
2017-Oct-10 11:31N 46°10' W 123°55'0 0.0
2017-Oct-10 11:01N 46°10' W 123°55'0 0.0
2017-Oct-10 10:30N 46°10' W 123°55'0 0.0
2017-Oct-10 10:01N 46°10' W 123°55'0 0.0
2017-Oct-10 09:18N 46°10' W 123°55'0 0.0
2017-Oct-10 08:51N 46°10' W 123°55'0 0.0
2017-Oct-10 08:31N 46°10' W 123°55'0 0.0
2017-Oct-10 08:00N 46°10' W 123°55'0 0.0
2017-Oct-10 07:31N 46°10' W 123°55'0 0.0
2017-Oct-10 07:00N 46°10' W 123°55'0 0.0
2017-Oct-10 06:30N 46°10' W 123°55'0 0.0
2017-Oct-10 05:56N 46°10' W 123°55'0 0.0
2017-Oct-10 05:30N 46°10' W 123°55'0 0.0
2017-Oct-10 05:01N 46°10' W 123°55'0 0.0
2017-Oct-10 04:30N 46°10' W 123°55'0 0.0
2017-Oct-10 03:51N 46°10' W 123°55'0 0.0
2017-Oct-10 03:30N 46°10' W 123°55'0 0.0
2017-Oct-10 02:56N 46°10' W 123°55'0 0.0
2017-Oct-10 02:31N 46°10' W 123°55'0 0.0
2017-Oct-10 02:00N 46°10' W 123°55'0 0.0
2017-Oct-10 01:11N 46°10' W 123°55'0 0.0
2017-Oct-10 01:00N 46°10' W 123°55'0 0.0
2017-Oct-10 00:31N 46°10' W 123°55'0 0.0
2017-Oct-10 00:01N 46°10' W 123°55'0 0.0
2017-Oct-09 23:31N 46°10' W 123°55'0 0.0
2017-Oct-09 23:00N 46°10' W 123°55'0 0.0
2017-Oct-09 22:31N 46°10' W 123°55'0 0.0
2017-Oct-09 22:00N 46°10' W 123°55'0 0.0
2017-Oct-09 21:31N 46°10' W 123°55'0 0.0
2017-Oct-09 21:01N 46°10' W 123°55'0 0.0
2017-Oct-09 20:30N 46°10' W 123°55'0 0.0
2017-Oct-09 20:01N 46°10' W 123°55'0 0.0
2017-Oct-09 19:30N 46°10' W 123°55'0 0.0
2017-Oct-09 19:01N 46°10' W 123°55'0 0.0
2017-Oct-09 18:31N 46°10' W 123°55'0 0.0
2017-Oct-09 18:00N 46°10' W 123°55'0 0.0
2017-Oct-09 17:30N 46°10' W 123°55'0 0.0
2017-Oct-09 17:00N 46°10' W 123°55'0 0.0
2017-Oct-09 16:31N 46°10' W 123°55'0 0.0
2017-Oct-09 16:01N 46°10' W 123°55'0 0.0
2017-Oct-09 15:31N 46°10' W 123°55'0 0.0
2017-Oct-09 15:01N 46°10' W 123°55'0 0.0
2017-Oct-09 14:30N 46°10' W 123°55'0 0.0
2017-Oct-09 14:00N 46°10' W 123°55'0 0.0
2017-Oct-09 13:30N 46°10' W 123°55'0 0.0
2017-Oct-09 13:00N 46°10' W 123°55'0 0.0
2017-Oct-09 12:30N 46°10' W 123°55'0 0.0
2017-Oct-09 12:01N 46°10' W 123°55'0 0.0
2017-Oct-09 11:30N 46°10' W 123°55'0 0.0
2017-Oct-09 10:59N 46°10' W 123°55'0 0.0
2017-Oct-09 10:13N 46°10' W 123°55'0 0.0
2017-Oct-09 10:01N 46°10' W 123°55'0 0.0
2017-Oct-09 09:30N 46°10' W 123°55'0 0.0
2017-Oct-09 09:00N 46°10' W 123°55'0 0.0
2017-Oct-09 08:31N 46°10' W 123°55'0 0.0
2017-Oct-09 08:00N 46°10' W 123°55'0 0.0
2017-Oct-09 07:30N 46°10' W 123°55'0 0.0
2017-Oct-09 07:00N 46°10' W 123°55'0 0.0
2017-Oct-09 06:30N 46°10' W 123°55'0 0.0
2017-Oct-09 06:01N 46°10' W 123°55'0 0.0
2017-Oct-09 05:30N 46°10' W 123°55'0 0.0
2017-Oct-09 05:00N 46°10' W 123°55'0 0.0
2017-Oct-09 04:30N 46°10' W 123°55'0 0.0
2017-Oct-09 04:00N 46°10' W 123°55'0 0.0
2017-Oct-09 03:31N 46°10' W 123°55'0 0.0
2017-Oct-09 03:00N 46°10' W 123°55'0 0.0
2017-Oct-09 02:30N 46°10' W 123°55'0 0.0
2017-Oct-09 02:00N 46°10' W 123°55'0 0.0
2017-Oct-09 01:31N 46°10' W 123°55'0 0.0
2017-Oct-09 00:49N 46°10' W 123°55'0 0.0
2017-Oct-09 00:31N 46°10' W 123°55'0 0.0
2017-Oct-09 00:01N 46°10' W 123°55'0 0.0
2017-Oct-08 23:30N 46°10' W 123°55'0 0.0
2017-Oct-08 23:00N 46°10' W 123°55'0 0.0
2017-Oct-08 22:16N 46°10' W 123°55'0 0.0
2017-Oct-08 22:01N 46°10' W 123°55'0 0.0
2017-Oct-08 21:30N 46°10' W 123°55'0 0.0
2017-Oct-08 21:00N 46°10' W 123°55'0 0.0
2017-Oct-08 20:31N 46°10' W 123°55'0 0.0
2017-Oct-08 20:01N 46°10' W 123°55'0 0.0
2017-Oct-08 19:31N 46°10' W 123°55'0 0.0
2017-Oct-08 19:01N 46°10' W 123°55'0 0.0
2017-Oct-08 18:31N 46°10' W 123°55'0 0.0
2017-Oct-08 17:47N 46°10' W 123°55'0 0.0
2017-Oct-08 17:30N 46°10' W 123°55'0 0.0
2017-Oct-08 17:00N 46°10' W 123°55'0 0.0
2017-Oct-08 16:30N 46°10' W 123°55'0 0.0
2017-Oct-08 16:00N 46°10' W 123°55'0 0.0
2017-Oct-08 15:31N 46°10' W 123°55'0 0.0
2017-Oct-08 14:47N 46°10' W 123°55'0 0.0
2017-Oct-08 14:25N 46°10' W 123°55'0 0.0
2017-Oct-08 14:00N 46°10' W 123°55'0 0.0
2017-Oct-08 13:30N 46°10' W 123°55'0 0.0
2017-Oct-08 13:01N 46°10' W 123°55'0 0.0
2017-Oct-08 12:30N 46°10' W 123°55'0 0.0
2017-Oct-08 12:01N 46°10' W 123°55'0 0.0
2017-Oct-08 11:30N 46°10' W 123°55'0 0.0
2017-Oct-08 11:00N 46°10' W 123°55'0 0.0
2017-Oct-08 10:30N 46°10' W 123°55'0 0.0
2017-Oct-08 10:00N 46°10' W 123°55'0 0.0
2017-Oct-08 09:31N 46°10' W 123°55'0 0.0
2017-Oct-08 09:01N 46°10' W 123°55'0 0.0
2017-Oct-08 08:20N 46°10' W 123°55'0 0.0
2017-Oct-08 08:01N 46°10' W 123°55'0 0.0
2017-Oct-08 07:30N 46°10' W 123°55'0 0.0
2017-Oct-08 07:00N 46°10' W 123°55'0 0.0
2017-Oct-08 06:30N 46°10' W 123°55'0 0.0
2017-Oct-08 06:00N 46°10' W 123°55'0 0.0
2017-Oct-08 05:30N 46°10' W 123°55'0 0.0
2017-Oct-08 05:00N 46°10' W 123°55'0 0.0
2017-Oct-08 04:30N 46°10' W 123°55'0 0.0
2017-Oct-08 04:00N 46°10' W 123°55'0 0.0
2017-Oct-08 03:19N 46°10' W 123°55'0 0.0
2017-Oct-08 03:01N 46°10' W 123°55'0 0.0
2017-Oct-08 02:30N 46°10' W 123°55'0 0.0
2017-Oct-08 02:01N 46°10' W 123°55'0 0.0
2017-Oct-08 01:31N 46°10' W 123°55'0 0.0
2017-Oct-08 00:58N 46°10' W 123°55'0 0.0
2017-Oct-08 00:30N 46°10' W 123°55'0 0.0
2017-Oct-08 00:00N 46°10' W 123°55'0 0.0
2017-Oct-07 23:31N 46°10' W 123°55'0 0.0
2017-Oct-07 23:00N 46°10' W 123°55'0 0.0
2017-Oct-07 22:31N 46°10' W 123°55'0 0.0
2017-Oct-07 22:00N 46°10' W 123°55'0 0.0
2017-Oct-07 21:31N 46°10' W 123°55'0 0.0
2017-Oct-07 21:00N 46°10' W 123°55'0 0.0
2017-Oct-07 20:30N 46°10' W 123°55'0 0.0
2017-Oct-07 20:00N 46°10' W 123°55'0 0.0
2017-Oct-07 19:30N 46°10' W 123°55'0 0.0
2017-Oct-07 19:00N 46°10' W 123°55'0 0.0
2017-Oct-07 18:30N 46°10' W 123°55'0 0.0
2017-Oct-07 18:00N 46°10' W 123°55'0 0.0
2017-Oct-07 17:30N 46°10' W 123°55'0 0.0
2017-Oct-07 16:21N 46°10' W 123°55'0 0.0
2017-Oct-07 15:59N 46°10' W 123°55'0 0.0
2017-Oct-07 15:30N 46°10' W 123°55'  

Dump ship's entire track history